Monday, February 19, 2018, 10:03 AM GMT
Back to Local

CWWZ, Port Weller, Ont.

Location: , , Canada Lat: 43.25
Local Time: 10:03 AM GMT (10:03 GMT) Lon: -79.217
Time Zone: GMT Elev: 259 ft

Show me the last for .
Show Coded

Time T Td Feel RH Dir Speed Gust Alt SLP Vis Weather Sky Remarks
2018-02-19 09:00 33 26 29 74 190° 5 - - 30.13 0 None
2018-02-19 08:00 33 25 27 72 160° 6 - - 30.15 0 None
2018-02-19 07:00 33 26 30 73 120° 3 - - 30.18 0 None
2018-02-19 06:00 32 25 29 76 120° 3 - - 30.21 0 None
2018-02-19 05:00 33 25 26 71 150° 8 - - 30.24 0 None
2018-02-19 04:00 32 25 27 76 130° 5 - - 30.27 0 None
2018-02-19 03:00 31 25 26 76 130° 6 - - 30.30 0 None
2018-02-19 02:00 31 25 26 77 140° 6 - - 30.33 0 None
2018-02-19 01:00 32 25 24 76 140° 9 - - 30.34 0 None
2018-02-19 00:00 32 25 27 74 180° 5 - - 30.38 0 None
2018-02-18 23:00 34 24 27 66 200° 8 - - 30.40 0 None
2018-02-18 22:00 35 25 29 65 210° 8 - - 30.39 0 None
2018-02-18 21:00 36 24 30 61 220° 8 - - 30.37 0 None
2018-02-18 20:00 38 24 36 57 230° 3 - - 30.34 0 None
2018-02-18 19:00 39 25 36 56 240° 3 - - 30.33 0 None
2018-02-18 18:00 37 26 31 63 250° 7 - - 30.34 0 None
2018-02-18 17:00 36 27 30 69 250° 7 - - 30.35 0 None
2018-02-18 16:00 38 27 33 62 240° 8 - - 30.34 0 None
2018-02-18 15:00 33 27 27 79 230° 6 - - 30.32 0 None
2018-02-18 14:00 31 27 24 82 230° 8 - - 30.32 0 None
2018-02-18 13:00 32 27 25 81 240° 7 - - 30.28 0 None
2018-02-18 12:00 32 27 25 81 240° 7 - - 30.24 0 None
2018-02-18 11:00 32 27 24 81 250° 9 - - 30.20 0 None

Support USWX by starting your Amazon purchase here.